Time;durP1;ratioP1;P1;durP2;ratioP2;P2;SDS_P1;SDS_P2;PMS_P1;PMS_P2;Temp;Humidity;BMP_temperature;BMP_pressure;BME280_temperature;BME280_humidity;BME280_pressure;Samples;Min_cycle;Max_cycle;Signal;HPM_P1;HPM_P2
2021/12/07 00:01:44;;;;;;;;;;;;;;;1.48;70.81;99346.25;4436888;32;34033;-66
2021/12/07 00:04:11;;;;;;;;;;;;;;;1.19;71.53;99345.00;4439911;32;34867;-65
2021/12/07 00:06:39;;;;;;;;;;;;;;;1.17;70.85;99346.56;4438876;32;33168;-65
2021/12/07 00:09:06;;;;;;;;;;;;;;;1.21;71.75;99342.56;4425442;32;33493;-66
2021/12/07 00:11:34;;;;;;;;;;;;;;;1.29;70.78;99350.00;4442723;32;34156;-65
2021/12/07 00:14:12;;;;;;;;;;;;;;;0.95;72.50;99355.16;4440523;32;35310;-65
2021/12/07 00:16:43;;;;;;;;;;;;;;;0.59;73.73;99354.13;4439226;32;33722;-65
2021/12/07 00:19:11;;;;;;;;;;;;;;;0.95;73.05;99350.06;4438877;32;33802;-65
2021/12/07 00:21:40;;;;;;;;;;;;;;;1.27;71.46;99343.91;4439462;32;33926;-66
2021/12/07 00:24:08;;;;;;;;;;;;;;;1.37;70.60;99341.28;4440603;32;35017;-65
2021/12/07 00:26:37;;;;;;;;;;;;;;;0.63;73.72;99355.25;4443503;32;33453;-65
2021/12/07 00:29:05;;;;;;;;;;;;;;;0.77;74.05;99363.97;4427443;32;33312;-65
2021/12/07 00:31:40;;;;;;;;;;;;;;;1.08;72.20;99362.09;4419841;32;33322;-65
2021/12/07 00:37:09;;;;;;;;;;;;;;;0.64;74.56;99363.78;4406366;32;34194;-65
2021/12/07 00:39:36;;;;;;;;;;;;;;;0.51;75.41;99361.97;4439299;32;33718;-66
2021/12/07 00:42:04;;;;;;;;;;;;;;;0.58;74.88;99362.56;4437343;32;33932;-65
2021/12/07 00:44:31;;;;;;;;;;;;;;;0.84;73.49;99350.91;4437563;32;33412;-65
2021/12/07 00:46:59;;;;;;;;;;;;;;;0.76;73.12;99350.31;4435268;32;33458;-66
2021/12/07 00:49:26;;;;;;;;;;;;;;;0.70;74.03;99351.53;4443593;32;34054;-65
2021/12/07 00:51:53;;;;;;;;;;;;;;;0.80;73.67;99354.00;4441501;32;34850;-65
2021/12/07 00:54:21;;;;;;;;;;;;;;;0.08;77.05;99351.88;4434582;32;34831;-65
2021/12/07 00:56:48;;;;;;;;;;;;;;;0.51;75.26;99345.03;4438214;32;33394;-65
2021/12/07 00:59:15;;;;;;;;;;;;;;;0.35;75.48;99350.59;4441834;32;34232;-65
2021/12/07 01:01:43;;;;;;;;;;;;;;;0.25;76.61;99350.66;4423773;32;33439;-65
2021/12/07 01:04:10;;;;;;;;;;;;;;;-0.25;78.29;99345.91;4444010;32;34330;-65
2021/12/07 01:07:24;;;;;;;;;;;;;;;-0.44;79.67;99346.09;4441379;32;33561;-65
2021/12/07 01:25:41;;;;;;;;;;;;;;;-0.36;78.77;99326.34;4438791;32;34107;-65
2021/12/07 01:28:27;;;;;;;;;;;;;;;-0.50;79.50;99337.06;4423385;32;33278;-65
2021/12/07 01:31:12;;;;;;;;;;;;;;;-0.53;80.14;99336.81;4428297;32;34005;-65
2021/12/07 01:52:05;;;;;;;;;;;;;;;-0.23;79.37;99328.22;4443139;32;34918;-65
2021/12/07 02:00:09;;;;;;;;;;;;;;;-0.40;79.42;99330.28;4434297;32;33424;-65
2021/12/07 02:02:38;;;;;;;;;;;;;;;0.04;78.24;99323.50;4439598;32;34020;-65
2021/12/07 02:05:07;;;;;;;;;;;;;;;-0.38;78.34;99325.34;4441801;32;34081;-65
2021/12/07 02:07:35;;;;;;;;;;;;;;;0.05;77.48;99330.37;4441309;32;33954;-65
2021/12/07 02:10:08;;;;;;;;;;;;;;;-0.55;79.99;99336.69;4441216;32;33451;-65
2021/12/07 02:12:43;;;;;;;;;;;;;;;-0.08;79.47;99328.53;4440674;32;34192;-65
2021/12/07 02:15:11;;;;;;;;;;;;;;;0.17;77.68;99332.25;4443573;32;34110;-65
2021/12/07 02:17:39;;;;;;;;;;;;;;;0.06;77.82;99324.50;4439202;32;34954;-65
2021/12/07 02:20:07;;;;;;;;;;;;;;;-0.30;80.04;99331.91;4437546;32;33533;-65
2021/12/07 02:22:34;;;;;;;;;;;;;;;-0.34;79.58;99319.72;4439368;32;34135;-65
2021/12/07 02:25:03;;;;;;;;;;;;;;;-0.31;80.38;99329.25;4437315;32;33965;-65
2021/12/07 02:27:30;;;;;;;;;;;;;;;-0.70;81.14;99318.53;4423545;32;34230;-65
2021/12/07 02:29:58;;;;;;;;;;;;;;;-0.16;79.23;99315.19;4431261;32;33256;-65
2021/12/07 02:32:25;;;;;;;;;;;;;;;-0.56;79.95;99311.12;4438065;32;33906;-65
2021/12/07 02:35:00;;;;;;;;;;;;;;;-0.48;79.68;99305.91;4438746;32;34892;-65
2021/12/07 02:37:29;;;;;;;;;;;;;;;-0.41;79.72;99310.72;4437792;32;34420;-65
2021/12/07 02:39:57;;;;;;;;;;;;;;;-0.02;78.02;99308.63;4436651;32;35578;-65
2021/12/07 02:42:24;;;;;;;;;;;;;;;-0.29;79.20;99309.88;4439072;32;34285;-65
2021/12/07 02:44:52;;;;;;;;;;;;;;;-0.81;81.77;99314.25;4437854;32;34323;-65
2021/12/07 02:47:20;;;;;;;;;;;;;;;-0.48;80.51;99311.00;4434716;32;34886;-65
2021/12/07 02:49:47;;;;;;;;;;;;;;;0.16;77.44;99302.44;4437125;32;33560;-65
2021/12/07 02:52:15;;;;;;;;;;;;;;;0.02;77.38;99299.56;4440043;32;33961;-65
2021/12/07 02:54:49;;;;;;;;;;;;;;;0.31;76.77;99294.19;4439486;32;35127;-65
2021/12/07 02:57:18;;;;;;;;;;;;;;;0.21;75.96;99296.81;4439556;32;34196;-64
2021/12/07 02:59:50;;;;;;;;;;;;;;;0.34;75.51;99291.87;4433457;32;32906;-66
2021/12/07 03:02:20;;;;;;;;;;;;;;;0.56;74.50;99287.66;4446345;32;34747;-64
2021/12/07 03:05:07;;;;;;;;;;;;;;;0.28;75.93;99293.97;4437595;32;33550;-65
2021/12/07 03:26:42;;;;;;;;;;;;;;;0.39;75.28;99288.03;4438621;32;33893;-65
2021/12/07 03:29:11;;;;;;;;;;;;;;;0.69;74.47;99298.75;4432962;32;34113;-64
2021/12/07 03:31:38;;;;;;;;;;;;;;;0.74;73.89;99293.25;4437277;32;34013;-65
2021/12/07 03:34:06;;;;;;;;;;;;;;;0.54;74.67;99301.94;4439302;32;35118;-65
2021/12/07 03:36:34;;;;;;;;;;;;;;;0.24;76.40;99300.47;4433740;32;34056;-65
2021/12/07 03:39:02;;;;;;;;;;;;;;;0.49;74.97;99295.59;4440027;32;34494;-65
2021/12/07 03:41:29;;;;;;;;;;;;;;;0.48;75.69;99296.34;4425935;32;33270;-65
2021/12/07 03:43:57;;;;;;;;;;;;;;;0.78;74.04;99299.47;4446964;32;33941;-65
2021/12/07 03:46:24;;;;;;;;;;;;;;;0.22;76.75;99298.59;4439173;32;34237;-65
2021/12/07 03:48:51;;;;;;;;;;;;;;;0.05;77.28;99300.72;4439788;32;34174;-65
2021/12/07 03:51:19;;;;;;;;;;;;;;;0.52;75.70;99290.75;4442177;32;33310;-65
2021/12/07 03:53:47;;;;;;;;;;;;;;;0.16;76.98;99293.91;4440136;32;34198;-65
2021/12/07 03:56:15;;;;;;;;;;;;;;;-0.12;78.45;99304.47;4438410;32;34224;-65
2021/12/07 03:58:43;;;;;;;;;;;;;;;0.64;75.59;99303.53;4439011;32;34133;-65
2021/12/07 04:01:11;;;;;;;;;;;;;;;0.46;74.81;99300.44;4438588;32;33319;-65
2021/12/07 04:03:39;;;;;;;;;;;;;;;0.49;75.58;99310.88;4435998;32;34158;-66
2021/12/07 04:06:08;;;;;;;;;;;;;;;0.68;74.60;99312.31;4438685;32;34255;-64
2021/12/07 04:08:36;;;;;;;;;;;;;;;0.91;73.33;99307.25;4425752;32;32633;-65
2021/12/07 04:11:05;;;;;;;;;;;;;;;0.50;74.65;99304.12;4437624;32;33311;-65
2021/12/07 04:13:32;;;;;;;;;;;;;;;0.47;75.75;99311.56;4439665;32;34198;-65
2021/12/07 04:16:01;;;;;;;;;;;;;;;0.62;74.86;99309.25;4438852;32;34288;-64
2021/12/07 04:18:28;;;;;;;;;;;;;;;0.84;73.47;99310.13;4449596;32;34603;-65
2021/12/07 04:20:57;;;;;;;;;;;;;;;1.02;73.07;99309.72;4437781;32;33556;-65
2021/12/07 04:23:24;;;;;;;;;;;;;;;0.65;74.03;99305.28;4429439;32;33305;-65
2021/12/07 04:25:52;;;;;;;;;;;;;;;0.48;74.59;99309.09;4438198;32;35022;-65
2021/12/07 04:28:19;;;;;;;;;;;;;;;0.40;75.00;99310.19;4412366;32;32684;-65
2021/12/07 04:30:46;;;;;;;;;;;;;;;0.84;73.33;99315.22;4438808;32;33570;-65
2021/12/07 04:33:31;;;;;;;;;;;;;;;0.81;73.68;99314.97;4434168;32;34931;-65
2021/12/07 04:35:59;;;;;;;;;;;;;;;1.12;72.80;99322.34;4439464;32;34045;-65
2021/12/07 04:38:26;;;;;;;;;;;;;;;0.67;74.11;99321.59;4440594;32;34011;-66
2021/12/07 04:40:54;;;;;;;;;;;;;;;0.37;75.02;99317.59;4424705;32;33889;-65
2021/12/07 04:43:21;;;;;;;;;;;;;;;-0.09;77.77;99326.75;4439615;32;34721;-65
2021/12/07 04:45:58;;;;;;;;;;;;;;;0.55;75.29;99326.62;4436983;32;33960;-64
2021/12/07 04:59:20;;;;;;;;;;;;;;;0.70;73.60;99334.56;4440692;32;34181;-65
2021/12/07 05:01:48;;;;;;;;;;;;;;;0.32;74.90;99341.84;4438685;32;33455;-65
2021/12/07 05:04:21;;;;;;;;;;;;;;;-0.20;77.02;99343.72;4438710;32;34039;-65
2021/12/07 05:06:52;;;;;;;;;;;;;;;0.84;73.58;99340.72;4424626;32;34263;-65
2021/12/07 05:12:20;;;;;;;;;;;;;;;0.59;73.90;99343.94;4439140;32;33489;-65
2021/12/07 05:14:47;;;;;;;;;;;;;;;0.52;74.86;99340.81;4438664;32;34078;-65
2021/12/07 05:38:46;;;;;;;;;;;;;;;-0.43;79.00;99354.59;4446116;32;34036;-65
2021/12/07 05:41:14;;;;;;;;;;;;;;;-0.32;78.86;99348.72;4440815;32;34637;-64
2021/12/07 05:43:41;;;;;;;;;;;;;;;-0.64;79.93;99349.56;4437822;32;33263;-64
2021/12/07 05:46:08;;;;;;;;;;;;;;;-0.61;80.47;99349.81;4449194;32;34258;-64
2021/12/07 05:48:35;;;;;;;;;;;;;;;-0.53;80.03;99341.91;4445370;32;34749;-64
2021/12/07 05:51:02;;;;;;;;;;;;;;;-0.78;81.00;99342.47;4441820;32;34182;-64
2021/12/07 05:53:30;;;;;;;;;;;;;;;-0.67;80.25;99339.13;4436225;32;33295;-64
2021/12/07 05:55:58;;;;;;;;;;;;;;;-0.57;80.05;99334.81;4436354;32;33569;-64
2021/12/07 05:58:26;;;;;;;;;;;;;;;-0.37;79.22;99329.66;4427186;32;34848;-64
2021/12/07 06:00:57;;;;;;;;;;;;;;;-0.07;78.01;99330.31;4438013;32;34243;-64
2021/12/07 06:03:25;;;;;;;;;;;;;;;-0.67;79.89;99336.59;4436376;32;33374;-64
2021/12/07 06:05:53;;;;;;;;;;;;;;;-0.60;79.71;99338.87;4435225;32;34951;-66
2021/12/07 06:08:21;;;;;;;;;;;;;;;-0.17;79.21;99327.78;4422454;32;33952;-65
2021/12/07 06:10:48;;;;;;;;;;;;;;;0.01;76.92;99334.34;4436541;32;34482;-64
2021/12/07 06:13:21;;;;;;;;;;;;;;;-0.35;77.87;99335.75;4437646;32;34308;-64
2021/12/07 06:15:48;;;;;;;;;;;;;;;-0.75;79.71;99337.63;4430755;32;34659;-63
2021/12/07 06:18:16;;;;;;;;;;;;;;;-0.30;79.08;99336.13;4437516;32;34246;-64
2021/12/07 06:20:43;;;;;;;;;;;;;;;-0.32;78.78;99338.53;4434635;32;33933;-63
2021/12/07 06:23:13;;;;;;;;;;;;;;;0.41;75.21;99328.91;4423280;32;33945;-63
2021/12/07 06:25:40;;;;;;;;;;;;;;;0.07;75.84;99334.81;4436015;32;33804;-64
2021/12/07 06:28:07;;;;;;;;;;;;;;;0.16;75.94;99325.34;4421431;32;34156;-64
2021/12/07 06:30:41;;;;;;;;;;;;;;;-0.37;77.73;99334.72;4434803;32;34177;-64
2021/12/07 06:33:08;;;;;;;;;;;;;;;0.39;75.49;99339.00;4416687;32;33485;-64
2021/12/07 06:35:35;;;;;;;;;;;;;;;-0.15;76.64;99334.81;4437932;32;34118;-64
2021/12/07 06:38:03;;;;;;;;;;;;;;;-0.36;78.06;99336.53;4438129;32;34195;-64
2021/12/07 06:40:30;;;;;;;;;;;;;;;0.15;76.30;99343.94;4437583;32;34750;-64
2021/12/07 06:42:59;;;;;;;;;;;;;;;0.37;75.20;99341.41;4438726;32;34056;-64
2021/12/07 06:45:28;;;;;;;;;;;;;;;0.43;74.48;99340.13;4436063;32;33057;-64
2021/12/07 06:47:55;;;;;;;;;;;;;;;-0.27;76.63;99337.25;4438771;32;33808;-64
2021/12/07 06:50:22;;;;;;;;;;;;;;;-0.87;79.73;99349.31;4438083;32;34292;-64
2021/12/07 06:52:50;;;;;;;;;;;;;;;-0.98;80.29;99345.03;4438815;32;33093;-64
2021/12/07 06:55:17;;;;;;;;;;;;;;;-0.46;78.08;99344.19;4433283;32;34916;-64
2021/12/07 06:57:44;;;;;;;;;;;;;;;-0.04;76.19;99340.72;4435052;32;34384;-64
2021/12/07 07:00:12;;;;;;;;;;;;;;;-0.62;78.46;99350.59;4437451;32;34307;-64
2021/12/07 07:02:39;;;;;;;;;;;;;;;-0.22;77.69;99350.34;4438794;32;33109;-64
2021/12/07 07:05:06;;;;;;;;;;;;;;;-0.90;79.58;99356.72;4436498;32;34369;-65
2021/12/07 07:07:34;;;;;;;;;;;;;;;-0.89;79.68;99359.41;4440472;32;34200;-64
2021/12/07 07:10:01;;;;;;;;;;;;;;;-0.57;78.38;99360.25;4438703;32;33743;-64
2021/12/07 07:12:29;;;;;;;;;;;;;;;-0.76;80.02;99371.44;4440753;32;33252;-64
2021/12/07 07:14:56;;;;;;;;;;;;;;;-0.88;80.36;99362.81;4438482;32;33834;-64
2021/12/07 07:17:23;;;;;;;;;;;;;;;-0.55;79.51;99363.81;4434288;32;34955;-65
2021/12/07 07:19:51;;;;;;;;;;;;;;;-0.06;77.64;99357.53;4430957;32;34789;-65
2021/12/07 07:22:18;;;;;;;;;;;;;;;-0.35;78.18;99358.66;4439446;32;33872;-64
2021/12/07 07:24:45;;;;;;;;;;;;;;;-0.69;78.60;99363.56;4439132;32;33845;-64
2021/12/07 07:27:12;;;;;;;;;;;;;;;-0.15;77.60;99361.94;4440067;32;33944;-64
2021/12/07 07:29:40;;;;;;;;;;;;;;;-0.25;78.35;99362.81;4438309;32;34043;-65
2021/12/07 07:32:07;;;;;;;;;;;;;;;0.30;74.84;99353.56;4430679;32;33208;-64
2021/12/07 07:34:34;;;;;;;;;;;;;;;0.04;76.59;99360.06;4436224;32;34176;-64
2021/12/07 07:37:02;;;;;;;;;;;;;;;0.04;76.13;99360.06;4440118;32;33478;-64
2021/12/07 07:39:29;;;;;;;;;;;;;;;0.41;74.91;99357.84;4437757;32;34990;-64
2021/12/07 07:41:56;;;;;;;;;;;;;;;0.52;74.23;99367.19;4439858;32;33300;-64
2021/12/07 07:44:27;;;;;;;;;;;;;;;-0.29;77.33;99376.97;4439324;32;34610;-65
2021/12/07 07:46:56;;;;;;;;;;;;;;;-0.23;77.95;99385.09;4439722;32;34849;-65
2021/12/07 07:49:23;;;;;;;;;;;;;;;0.11;75.19;99382.66;4437944;32;34402;-65
2021/12/07 07:51:51;;;;;;;;;;;;;;;-0.20;77.15;99385.31;4425780;32;33093;-65
2021/12/07 07:54:18;;;;;;;;;;;;;;;-0.27;77.03;99383.06;4438277;32;34164;-64
2021/12/07 07:56:45;;;;;;;;;;;;;;;0.42;73.89;99385.06;4439905;32;34266;-64
2021/12/07 07:59:13;;;;;;;;;;;;;;;0.87;72.25;99385.94;4438564;32;34268;-64
2021/12/07 08:01:40;;;;;;;;;;;;;;;0.54;73.75;99378.41;4436876;32;33263;-66
2021/12/07 08:04:07;;;;;;;;;;;;;;;0.16;74.77;99383.94;4429719;32;33661;-64
2021/12/07 08:06:34;;;;;;;;;;;;;;;0.64;72.81;99382.53;4439275;32;33888;-64
2021/12/07 08:09:03;;;;;;;;;;;;;;;-0.12;74.64;99382.50;4426373;32;33961;-64
2021/12/07 08:11:30;;;;;;;;;;;;;;;0.86;72.26;99389.28;4438373;32;33851;-64
2021/12/07 08:13:58;;;;;;;;;;;;;;;0.06;75.04;99394.19;4438752;32;34043;-64
2021/12/07 08:16:25;;;;;;;;;;;;;;;0.27;74.02;99394.06;4432899;32;33980;-65
2021/12/07 08:18:53;;;;;;;;;;;;;;;0.14;74.84;99397.31;4438259;32;34137;-64
2021/12/07 08:21:21;;;;;;;;;;;;;;;-0.54;77.26;99401.19;4439258;32;33971;-64
2021/12/07 08:23:48;;;;;;;;;;;;;;;-0.57;77.90;99395.88;4434644;32;34908;-64
2021/12/07 08:26:18;;;;;;;;;;;;;;;0.06;75.83;99399.28;4444064;32;34981;-64
2021/12/07 08:28:52;;;;;;;;;;;;;;;0.42;74.53;99390.16;4426212;32;33405;-64
2021/12/07 08:31:19;;;;;;;;;;;;;;;-0.04;76.65;99391.63;4440541;32;33984;-64
2021/12/07 08:33:47;;;;;;;;;;;;;;;-0.28;77.46;99391.47;4440181;32;34778;-64
2021/12/07 08:36:15;;;;;;;;;;;;;;;-0.16;77.09;99385.59;4426047;32;34983;-65
2021/12/07 08:38:42;;;;;;;;;;;;;;;0.64;74.25;99382.53;4439905;32;34883;-64
2021/12/07 08:41:10;;;;;;;;;;;;;;;-0.06;76.13;99393.19;4426162;32;31753;-64
2021/12/07 08:43:38;;;;;;;;;;;;;;;0.78;73.38;99386.16;4440181;32;34710;-65
2021/12/07 08:46:05;;;;;;;;;;;;;;;0.72;73.81;99385.69;4440198;32;33940;-64
2021/12/07 08:48:34;;;;;;;;;;;;;;;0.32;75.17;99388.56;4439975;32;35048;-64
2021/12/07 08:51:02;;;;;;;;;;;;;;;0.62;73.94;99383.19;4440142;32;33343;-64
2021/12/07 08:53:29;;;;;;;;;;;;;;;0.45;74.53;99380.22;4440025;32;34060;-64
2021/12/07 09:01:33;;;;;;;;;;;;;;;0.46;75.34;99376.91;4440346;32;33563;-64
2021/12/07 09:04:01;;;;;;;;;;;;;;;0.58;74.22;99371.88;4440040;32;33940;-65
2021/12/07 09:06:29;;;;;;;;;;;;;;;0.73;73.77;99372.16;4438934;32;34297;-64
2021/12/07 09:08:56;;;;;;;;;;;;;;;0.68;73.59;99370.94;4439846;32;34677;-64
2021/12/07 09:11:24;;;;;;;;;;;;;;;0.96;73.53;99372.22;4439413;32;33273;-64
2021/12/07 09:13:51;;;;;;;;;;;;;;;0.46;75.10;99370.91;4439798;32;33900;-64
2021/12/07 09:16:19;;;;;;;;;;;;;;;0.67;74.50;99367.47;4423698;32;34240;-64
2021/12/07 09:18:47;;;;;;;;;;;;;;;0.33;75.46;99361.47;4438854;32;34165;-65
2021/12/07 09:21:14;;;;;;;;;;;;;;;0.54;75.57;99364.75;4439534;32;33424;-65
2021/12/07 09:23:41;;;;;;;;;;;;;;;1.17;72.75;99361.88;4439714;32;33742;-65
2021/12/07 09:26:10;;;;;;;;;;;;;;;0.53;74.77;99360.44;4425673;32;33356;-65
2021/12/07 09:28:37;;;;;;;;;;;;;;;0.39;75.11;99354.28;4438788;32;34238;-64
2021/12/07 09:31:05;;;;;;;;;;;;;;;1.52;71.64;99361.03;4440007;32;34043;-65
2021/12/07 09:33:33;;;;;;;;;;;;;;;1.41;71.83;99352.59;4438850;32;34185;-65
2021/12/07 09:36:01;;;;;;;;;;;;;;;0.74;73.97;99340.78;4438213;32;34903;-64
2021/12/07 09:38:29;;;;;;;;;;;;;;;0.69;74.32;99339.53;4438551;32;34002;-64
2021/12/07 09:40:57;;;;;;;;;;;;;;;0.96;73.73;99346.72;4438268;32;34181;-65
2021/12/07 09:43:24;;;;;;;;;;;;;;;1.23;72.76;99336.81;4439630;32;34676;-64
2021/12/07 09:45:51;;;;;;;;;;;;;;;1.42;71.57;99343.28;4425835;32;34194;-65
2021/12/07 09:48:19;;;;;;;;;;;;;;;1.22;72.31;99337.59;4438965;32;34229;-65
2021/12/07 09:50:47;;;;;;;;;;;;;;;1.16;72.74;99329.50;4439388;32;33171;-65
2021/12/07 09:53:15;;;;;;;;;;;;;;;1.02;73.93;99332.66;4439432;32;34091;-65
2021/12/07 09:55:43;;;;;;;;;;;;;;;1.19;73.97;99324.59;4423056;32;34978;-65
2021/12/07 09:58:12;;;;;;;;;;;;;;;1.12;73.39;99322.34;4434698;32;34293;-64
2021/12/07 10:00:39;;;;;;;;;;;;;;;1.47;72.77;99316.41;4436177;32;33866;-64
2021/12/07 10:03:07;;;;;;;;;;;;;;;1.52;72.12;99315.06;4439521;32;34821;-65
2021/12/07 10:05:35;;;;;;;;;;;;;;;1.29;73.04;99316.84;4439541;32;34171;-65
2021/12/07 10:08:03;;;;;;;;;;;;;;;1.26;73.67;99316.63;4439312;32;34659;-64
2021/12/07 10:10:33;;;;;;;;;;;;;;;1.46;72.64;99317.19;4439612;32;33380;-65
2021/12/07 10:13:00;;;;;;;;;;;;;;;1.53;72.42;99319.41;4427922;32;34346;-65
2021/12/07 10:15:27;;;;;;;;;;;;;;;1.44;72.94;99316.19;4439507;32;34087;-65
2021/12/07 10:18:04;;;;;;;;;;;;;;;1.62;71.79;99307.28;4425220;32;35198;-64
2021/12/07 10:20:39;;;;;;;;;;;;;;;2.15;70.39;99306.78;4440517;32;34138;-64
2021/12/07 10:23:16;;;;;;;;;;;;;;;1.27;73.24;99313.28;4439382;32;33061;-64
2021/12/07 10:25:44;;;;;;;;;;;;;;;1.65;72.34;99302.41;4438505;32;34080;-64
2021/12/07 10:28:24;;;;;;;;;;;;;;;1.29;73.17;99293.88;4439534;32;34103;-65
2021/12/07 10:30:52;;;;;;;;;;;;;;;1.27;73.23;99310.72;4439364;32;34222;-65
2021/12/07 10:33:30;;;;;;;;;;;;;;;1.72;72.58;99304.66;4439367;32;34223;-65
2021/12/07 10:36:07;;;;;;;;;;;;;;;1.92;71.83;99295.84;4439491;32;34827;-64
2021/12/07 10:38:35;;;;;;;;;;;;;;;1.59;72.79;99309.66;4438786;32;34964;-65
2021/12/07 10:41:03;;;;;;;;;;;;;;;1.88;71.72;99298.06;4439110;32;33312;-64
2021/12/07 10:43:46;;;;;;;;;;;;;;;1.69;72.41;99309.50;4422737;32;32481;-64
2021/12/07 10:46:26;;;;;;;;;;;;;;;1.76;72.10;99304.06;4434811;32;35049;-65
2021/12/07 10:49:08;;;;;;;;;;;;;;;1.70;72.08;99308.75;4439225;32;33942;-66
2021/12/07 10:51:36;;;;;;;;;;;;;;;1.66;72.04;99314.44;4438123;32;33357;-66
2021/12/07 10:54:03;;;;;;;;;;;;;;;2.27;70.37;99299.06;4439124;32;34060;-65
2021/12/07 10:56:30;;;;;;;;;;;;;;;2.40;69.29;99299.16;4439358;32;34631;-65
2021/12/07 10:59:05;;;;;;;;;;;;;;;1.71;71.15;99287.53;4446497;32;34067;-64
2021/12/07 11:01:34;;;;;;;;;;;;;;;1.92;70.48;99292.41;4441486;32;33089;-65
2021/12/07 11:04:37;;;;;;;;;;;;;;;1.94;70.62;99290.84;4438951;32;34210;-65
2021/12/07 11:07:19;;;;;;;;;;;;;;;1.95;70.73;99287.47;4390567;32;33979;-64
2021/12/07 11:10:01;;;;;;;;;;;;;;;2.52;68.52;99288.88;4420771;32;33802;-64
2021/12/07 11:12:31;;;;;;;;;;;;;;;2.80;68.07;99291.63;4439201;32;33312;-64
2021/12/07 11:15:00;;;;;;;;;;;;;;;2.50;68.53;99286.19;4417015;32;34227;-65
2021/12/07 11:17:30;;;;;;;;;;;;;;;2.46;68.59;99286.78;4439011;32;35055;-65
2021/12/07 11:19:57;;;;;;;;;;;;;;;2.15;69.09;99281.22;4438946;32;34265;-64
2021/12/07 11:22:26;;;;;;;;;;;;;;;2.39;68.74;99287.13;4438559;32;32958;-64
2021/12/07 11:24:54;;;;;;;;;;;;;;;2.89;67.71;99291.34;4438683;32;33949;-64
2021/12/07 11:30:12;;;;;;;;;;;;;;;2.90;66.10;99278.66;4438700;32;34275;-64
2021/12/07 11:32:43;;;;;;;;;;;;;;;2.47;67.08;99287.66;4438409;32;33363;-65
2021/12/07 11:35:13;;;;;;;;;;;;;;;2.30;68.54;99277.19;4437889;32;33916;-64
2021/12/07 11:37:40;;;;;;;;;;;;;;;2.77;67.29;99286.28;4438468;32;33975;-64
2021/12/07 11:40:09;;;;;;;;;;;;;;;2.90;66.94;99278.66;4438152;32;34189;-65
2021/12/07 11:42:38;;;;;;;;;;;;;;;3.07;66.55;99276.31;4438444;32;34216;-65
2021/12/07 11:45:10;;;;;;;;;;;;;;;2.82;67.21;99281.47;4438427;32;34035;-64
2021/12/07 11:47:39;;;;;;;;;;;;;;;3.00;66.85;99285.28;4438680;32;35077;-65
2021/12/07 11:50:17;;;;;;;;;;;;;;;2.66;67.30;99292.34;4437712;32;33899;-64
2021/12/07 11:52:45;;;;;;;;;;;;;;;2.90;67.75;99283.78;4439004;32;34066;-64
2021/12/07 11:55:13;;;;;;;;;;;;;;;2.90;66.78;99280.34;4440287;32;34139;-65
2021/12/07 11:57:40;;;;;;;;;;;;;;;2.57;67.50;99272.19;4440461;32;34009;-64
2021/12/07 12:00:11;;;;;;;;;;;;;;;2.53;67.41;99271.09;4440069;32;34162;-65
2021/12/07 12:02:39;;;;;;;;;;;;;;;2.72;67.27;99262.06;4440327;32;34330;-65
2021/12/07 12:05:06;;;;;;;;;;;;;;;2.54;67.67;99267.72;4439645;32;34470;-64
2021/12/07 12:07:34;;;;;;;;;;;;;;;2.65;67.34;99272.69;4440399;32;34795;-65
2021/12/07 12:10:02;;;;;;;;;;;;;;;2.52;67.60;99269.28;4440776;32;34150;-65
2021/12/07 12:12:34;;;;;;;;;;;;;;;2.61;68.00;99268.13;4440392;32;33224;-64
2021/12/07 12:15:11;;;;;;;;;;;;;;;2.61;67.90;99263.94;4426791;32;33834;-64
2021/12/07 12:17:46;;;;;;;;;;;;;;;2.60;68.33;99256.16;4417915;32;33728;-65
2021/12/07 12:20:17;;;;;;;;;;;;;;;2.47;68.53;99270.66;4426613;32;34677;-65
2021/12/07 12:22:45;;;;;;;;;;;;;;;2.78;68.12;99265.03;4425127;32;34224;-64
2021/12/07 12:25:14;;;;;;;;;;;;;;;2.42;69.31;99274.56;4440055;32;34019;-64
2021/12/07 12:27:42;;;;;;;;;;;;;;;2.49;69.09;99274.22;4439829;32;34194;-64
2021/12/07 12:30:18;;;;;;;;;;;;;;;2.55;69.00;99279.75;4440265;32;33916;-65
2021/12/07 12:32:54;;;;;;;;;;;;;;;2.65;68.66;99277.81;4440034;32;33237;-64
2021/12/07 12:35:28;;;;;;;;;;;;;;;2.54;68.66;99289.84;4440057;32;34068;-64
2021/12/07 12:37:56;;;;;;;;;;;;;;;2.56;69.26;99295.97;4440187;32;34251;-64
2021/12/07 12:40:25;;;;;;;;;;;;;;;2.61;68.80;99288.59;4432686;32;34103;-63
2021/12/07 12:42:53;;;;;;;;;;;;;;;2.78;67.69;99293.16;4426232;32;32895;-64
2021/12/07 12:45:29;;;;;;;;;;;;;;;2.46;69.40;99304.66;4426358;32;34275;-64
2021/12/07 12:48:01;;;;;;;;;;;;;;;3.06;67.26;99300.16;4426152;32;34809;-64
2021/12/07 12:50:35;;;;;;;;;;;;;;;3.22;66.25;99302.03;4440233;32;35195;-64
2021/12/07 12:53:07;;;;;;;;;;;;;;;3.03;67.14;99310.16;4432499;32;33901;-64
2021/12/07 12:55:34;;;;;;;;;;;;;;;3.00;67.36;99298.06;4438738;32;34115;-65
2021/12/07 12:58:03;;;;;;;;;;;;;;;3.59;65.40;99305.28;4439901;32;33611;-64
2021/12/07 13:00:48;;;;;;;;;;;;;;;3.54;65.30;99312.69;4437939;32;34846;-63
2021/12/07 13:03:16;;;;;;;;;;;;;;;3.37;65.49;99320.06;4441365;32;33551;-65
2021/12/07 13:05:45;;;;;;;;;;;;;;;3.09;66.61;99316.59;4443500;32;34634;-64
2021/12/07 13:08:16;;;;;;;;;;;;;;;3.23;66.15;99319.19;4423977;32;34922;-64
2021/12/07 13:10:57;;;;;;;;;;;;;;;3.03;66.86;99322.97;4440763;32;33842;-64
2021/12/07 13:13:35;;;;;;;;;;;;;;;2.90;67.64;99322.16;4437381;32;33064;-63
2021/12/07 13:16:15;;;;;;;;;;;;;;;2.79;67.74;99317.97;4441774;32;34404;-64
2021/12/07 13:18:43;;;;;;;;;;;;;;;2.73;68.30;99315.00;4443819;32;34050;-65
2021/12/07 13:21:22;;;;;;;;;;;;;;;2.58;68.86;99316.53;4438815;32;34248;-64
2021/12/07 13:23:57;;;;;;;;;;;;;;;2.67;68.77;99319.72;4436374;32;33335;-65
2021/12/07 13:26:24;;;;;;;;;;;;;;;2.51;69.13;99316.13;4438865;32;34207;-64
2021/12/07 13:29:02;;;;;;;;;;;;;;;2.55;68.95;99309.53;4438464;32;34713;-65
2021/12/07 13:31:44;;;;;;;;;;;;;;;2.74;68.87;99324.44;4431635;32;34053;-65
2021/12/07 13:34:12;;;;;;;;;;;;;;;3.04;68.06;99322.19;4440626;32;34134;-65
2021/12/07 13:37:06;;;;;;;;;;;;;;;2.69;69.47;99319.03;4439803;32;35025;-65
2021/12/07 13:39:44;;;;;;;;;;;;;;;2.78;68.91;99321.31;4423827;32;32547;-65
2021/12/07 13:42:17;;;;;;;;;;;;;;;2.85;69.01;99326.06;4439091;32;34445;-64
2021/12/07 13:44:48;;;;;;;;;;;;;;;2.83;68.99;99317.41;4444447;32;34150;-65
2021/12/07 13:47:17;;;;;;;;;;;;;;;2.65;69.06;99314.50;4448672;32;34174;-64
2021/12/07 13:49:52;;;;;;;;;;;;;;;2.92;68.02;99324.81;4441580;32;34172;-64
2021/12/07 13:52:20;;;;;;;;;;;;;;;2.65;69.64;99321.28;4447945;32;34064;-64
2021/12/07 13:54:52;;;;;;;;;;;;;;;3.11;67.74;99334.59;4438792;32;33816;-64
2021/12/07 13:57:21;;;;;;;;;;;;;;;2.74;68.56;99327.00;4439593;32;33507;-64
2021/12/07 13:59:58;;;;;;;;;;;;;;;2.62;69.14;99331.28;4435517;32;34688;-64
2021/12/07 14:02:26;;;;;;;;;;;;;;;2.72;69.05;99328.56;4436405;32;34418;-65
2021/12/07 14:05:07;;;;;;;;;;;;;;;2.02;71.21;99339.91;4439279;32;33251;-64
2021/12/07 14:07:35;;;;;;;;;;;;;;;2.54;70.09;99334.19;4434195;32;35164;-64
2021/12/07 14:10:14;;;;;;;;;;;;;;;2.52;69.67;99330.66;4449019;32;34026;-65
2021/12/07 14:12:42;;;;;;;;;;;;;;;2.65;68.89;99336.63;4439629;32;34007;-64
2021/12/07 14:15:14;;;;;;;;;;;;;;;2.46;69.90;99347.25;4439405;32;34205;-65
2021/12/07 14:17:48;;;;;;;;;;;;;;;2.77;68.68;99341.69;4446137;32;33532;-65
2021/12/07 14:20:33;;;;;;;;;;;;;;;2.22;70.20;99341.31;4425592;32;32546;-64
2021/12/07 14:23:01;;;;;;;;;;;;;;;2.52;69.39;99343.44;4434356;32;34105;-65
2021/12/07 14:25:28;;;;;;;;;;;;;;;2.15;71.28;99348.53;4445493;32;33315;-65
2021/12/07 14:27:57;;;;;;;;;;;;;;;2.65;69.88;99341.75;4442997;32;34827;-65
2021/12/07 14:30:24;;;;;;;;;;;;;;;2.92;67.45;99351.28;4433069;32;33918;-65
2021/12/07 14:32:52;;;;;;;;;;;;;;;2.62;68.46;99346.63;4445271;32;34500;-64
2021/12/07 14:35:20;;;;;;;;;;;;;;;2.53;69.63;99352.91;4446348;32;33374;-64
2021/12/07 14:37:47;;;;;;;;;;;;;;;2.74;68.50;99348.38;4422608;32;34188;-65
2021/12/07 14:40:14;;;;;;;;;;;;;;;2.47;69.19;99356.69;4443994;32;33589;-65
2021/12/07 14:43:02;;;;;;;;;;;;;;;2.83;68.25;99342.97;4433152;32;34966;-65
2021/12/07 14:45:29;;;;;;;;;;;;;;;2.69;68.46;99353.94;4432524;32;32934;-64
2021/12/07 14:47:59;;;;;;;;;;;;;;;2.47;68.85;99357.59;4418319;32;33097;-64
2021/12/07 14:50:42;;;;;;;;;;;;;;;2.02;70.88;99361.22;4444915;32;34840;-66
2021/12/07 14:53:10;;;;;;;;;;;;;;;1.93;70.79;99360.56;4439098;32;34314;-65
2021/12/07 14:55:38;;;;;;;;;;;;;;;2.02;70.84;99363.78;4445998;32;33233;-65